West Palm Beach, FL

7:46 PM EDT on August 29, 2016 (GMT -0400)
Indigo Weather | | Change Station

Elev 23 ft 26.67 °N, 80.26 °W | Updated 8 minutes ago

Mostly Cloudy
Mostly Cloudy
81.8 °F
Feels Like 79 °F
N
0.0
Wind Variable Wind from SSE
Gusts 4.0 mph

Today
High -- | Low -- °F
--% Chance of Precip.
Yesterday
High -- | Low -- °F
Precip. -- in
Pressure 29.91 in
Visibility 10.0 miles
Clouds Scattered Clouds 2000 ft
Scattered Clouds 6500 ft
Mostly Cloudy 22000 ft
Heat Index 79 °F
Dew Point 18 °F
Humidity 9%
Rainfall 0.74 in
Snow Depth Not available.
6:59 AM 7:43 PM
Waning Crescent, 6% visible
METAR KPBI 292253Z 14012KT 10SM SCT020 SCT065 BKN220 28/23 A2991 RMK AO2 SLP128 CB DSNT SE SW-W T02780233
Pressure 29.91 in
Visibility 10.0 miles
Clouds Scattered Clouds 2000 ft
Scattered Clouds 6500 ft
Mostly Cloudy 22000 ft
Heat Index 79 °F
Dew Point 18 °F
Humidity 9%
Rainfall 0.74 in
Snow Depth Not available.
6:59 AM 7:43 PM
Waning Crescent, 6% visible
METAR KPBI 292253Z 14012KT 10SM SCT020 SCT065 BKN220 28/23 A2991 RMK AO2 SLP128 CB DSNT SE SW-W T02780233
Tropical Depression Nine was centered about 170 miles west-southwest of Key West, Florida, as of late Monday morning. The depression may struggle a bit in the southern Gulf of Mexico before finally making a Gulf Coast landfall later this week with soaking rain and gusty winds.

This latest system was designated a tropical depression Sunday after a Hurricane Hunter reconnaissance mission finally found a sufficiently organized low-pressure center with collocated shower and thunderstorm activity.

10-Day Weather Forecast

Almanac

Astronomy

Aug. 29, 2016 Rise Set
Actual Time
Civil Twilight
Nautical Twilight
Astronomical Twilight
Moon
Length of Visible Light
Length of Day
Tomorrow will be .
, % of the Moon is Illuminated

Today's Extremes

State Highs State Lows

Community

WunderPhotos

Upload Photos

1,935,695 photos uploaded!

WunderBlog® & News

Nearby

Air Quality

  Air Quality AQ Index Pollutant
Not available.

Snow Depth

Station Depth Elevation

Earthquake Activity

City Distance Mag. Time & Date
Minimum magnitude displayed is 2.5.

Coastal Water Temperatures

Place Temperature

Stations

Nearby Weather Stations

Station Location Temp. Windchill Dew Point Humidity Wind Precip. Elev Updated Type
                   

Watches & Warnings

There are currently no watches in effect.